createdAt,value
2023-05-16T00:04:15.612Z,30.08
2023-05-16T00:10:18.296Z,23.75
2023-05-16T00:16:22.070Z,22.58
2023-05-16T00:22:25.542Z,23.73
2023-05-16T00:28:27.810Z,26.95
2023-05-16T00:34:30.146Z,24.85
2023-05-16T00:40:32.637Z,24.80
2023-05-16T00:46:35.260Z,22.80
2023-05-16T00:52:37.849Z,24.50
2023-05-16T00:58:40.272Z,24.98
2023-05-16T01:04:44.414Z,27.00
2023-05-16T01:11:02.904Z,27.10
2023-05-16T01:17:23.614Z,26.83
2023-05-16T01:23:36.599Z,28.15
2023-05-16T01:29:39.101Z,30.88
2023-05-16T01:35:54.473Z,36.58
2023-05-16T01:42:14.128Z,35.42
2023-05-16T01:48:35.472Z,32.30
2023-05-16T01:54:40.175Z,36.08
2023-05-16T02:00:42.696Z,33.63
2023-05-16T02:06:45.421Z,30.35
2023-05-16T02:12:47.841Z,27.20
2023-05-16T02:18:50.403Z,29.58
2023-05-16T02:24:52.826Z,24.02
2023-05-16T02:31:01.568Z,26.05
2023-05-16T02:37:03.966Z,28.92
2023-05-16T02:43:06.404Z,22.33
2023-05-16T02:49:08.716Z,23.23
2023-05-16T02:55:21.722Z,25.05
2023-05-16T03:01:24.924Z,26.35
2023-05-16T03:07:27.453Z,25.33
2023-05-16T03:13:30.304Z,22.13
2023-05-16T03:19:34.452Z,21.02
2023-05-16T03:25:37.128Z,20.73
2023-05-16T03:31:39.551Z,18.25
2023-05-16T03:37:41.881Z,16.85
2023-05-16T03:43:44.242Z,19.77
2023-05-16T03:49:46.485Z,15.45
2023-05-16T03:55:48.986Z,14.77
2023-05-16T04:01:51.528Z,12.32
2023-05-16T04:07:53.918Z,13.25
2023-05-16T04:13:57.039Z,10.35
2023-05-16T04:19:59.990Z,11.77
2023-05-16T04:26:04.598Z,12.07
2023-05-16T04:32:07.750Z,7.43
2023-05-16T04:38:10.015Z,11.82
2023-05-16T04:44:12.299Z,9.50
2023-05-16T04:50:16.166Z,4.78
2023-05-16T04:56:18.637Z,7.70
2023-05-16T05:02:21.456Z,7.95
2023-05-16T05:08:23.784Z,6.53
2023-05-16T05:14:26.288Z,7.90
2023-05-16T05:20:29.015Z,7.93
2023-05-16T05:26:31.453Z,4.50
2023-05-16T05:32:33.757Z,9.60
2023-05-16T05:38:36.423Z,8.13
2023-05-16T05:44:38.737Z,10.55
2023-05-16T05:50:41.073Z,7.43
2023-05-16T05:56:43.316Z,10.52
2023-05-16T06:02:45.863Z,11.40
2023-05-16T06:08:48.186Z,11.23
2023-05-16T06:14:50.646Z,12.85
2023-05-16T06:20:53.657Z,13.10
2023-05-16T06:26:56.081Z,16.35
2023-05-16T06:32:58.362Z,16.83
2023-05-16T06:39:00.770Z,14.95
2023-05-16T06:45:03.240Z,16.20
2023-05-16T06:51:05.883Z,13.32
2023-05-16T06:57:10.992Z,18.95
2023-05-16T07:03:13.623Z,14.35
2023-05-16T07:09:16.012Z,18.95
2023-05-16T07:15:18.507Z,14.70
2023-05-16T07:21:20.813Z,12.93
2023-05-16T07:27:23.800Z,12.35
2023-05-16T07:33:27.433Z,23.85
2023-05-16T07:39:29.735Z,11.68
2023-05-16T07:45:32.037Z,18.17
2023-05-16T07:51:34.346Z,17.63
2023-05-16T07:57:36.899Z,17.58
2023-05-16T08:03:39.765Z,22.65
2023-05-16T08:09:42.307Z,11.30
2023-05-16T08:15:44.909Z,15.05
2023-05-16T08:21:47.656Z,11.77
2023-05-16T08:27:51.148Z,20.00
2023-05-16T08:33:53.432Z,13.10
2023-05-16T08:39:55.762Z,13.52
2023-05-16T08:45:58.120Z,13.00
2023-05-16T08:52:03.598Z,10.02
2023-05-16T08:58:06.287Z,10.32
2023-05-16T09:04:09.619Z,14.95
2023-05-16T09:10:12.970Z,9.13
2023-05-16T09:16:17.291Z,10.77
2023-05-16T09:22:19.888Z,12.93
2023-05-16T09:28:22.725Z,13.07
2023-05-16T09:34:24.997Z,13.85
2023-05-16T09:40:27.657Z,12.63
2023-05-16T09:46:30.001Z,14.00
2023-05-16T09:52:32.797Z,12.95
2023-05-16T09:58:37.124Z,7.85
2023-05-16T10:04:39.497Z,10.18
2023-05-16T10:10:42.578Z,8.63
2023-05-16T10:16:48.568Z,15.43
2023-05-16T10:22:55.182Z,13.27
2023-05-16T10:28:57.619Z,11.40
2023-05-16T10:35:03.664Z,10.55
2023-05-16T10:41:07.677Z,8.95
2023-05-16T10:47:10.093Z,8.90
2023-05-16T10:53:22.577Z,7.55
2023-05-16T10:59:28.448Z,10.70
2023-05-16T11:05:31.089Z,7.15
2023-05-16T11:11:51.940Z,7.07
2023-05-16T11:18:16.912Z,9.20
2023-05-16T11:24:30.375Z,8.82
2023-05-16T11:30:33.177Z,8.05
2023-05-16T11:36:35.990Z,5.68
2023-05-16T11:42:46.806Z,8.25
2023-05-16T11:48:49.376Z,5.93
2023-05-16T11:54:51.955Z,7.78
2023-05-16T12:00:54.307Z,7.47
2023-05-16T12:07:01.223Z,7.40
2023-05-16T12:13:04.191Z,4.55
2023-05-16T12:19:07.171Z,5.22
2023-05-16T12:25:22.886Z,8.02
2023-05-16T12:31:31.524Z,7.57
2023-05-16T12:37:34.369Z,6.20
2023-05-16T12:43:36.676Z,10.23
2023-05-16T12:49:48.575Z,6.30
2023-05-16T12:55:51.380Z,5.32
2023-05-16T13:01:53.735Z,9.52
2023-05-16T13:07:56.135Z,4.47
2023-05-16T13:13:58.473Z,7.57
2023-05-16T13:20:00.801Z,6.60
2023-05-16T13:26:03.251Z,4.70
2023-05-16T13:32:06.235Z,5.68
2023-05-16T13:38:08.598Z,5.82
2023-05-16T13:44:11.015Z,3.30
2023-05-16T13:50:13.346Z,4.20
2023-05-16T13:56:15.842Z,3.60
2023-05-16T14:02:18.208Z,4.68
2023-05-16T14:08:20.541Z,2.53
2023-05-16T14:14:22.881Z,5.05
2023-05-16T14:20:25.223Z,5.88
2023-05-16T14:26:27.562Z,6.78
2023-05-16T14:32:30.083Z,7.43
2023-05-16T14:38:32.706Z,5.60
2023-05-16T14:44:35.006Z,3.65
2023-05-16T14:50:38.897Z,5.63
2023-05-16T14:56:41.819Z,8.13
2023-05-16T15:02:45.074Z,6.00
2023-05-16T15:08:47.859Z,5.97
2023-05-16T15:14:50.653Z,4.93
2023-05-16T15:20:53.425Z,7.15
2023-05-16T15:26:56.481Z,6.70
2023-05-16T15:32:59.013Z,6.93
2023-05-16T15:39:01.593Z,6.70
2023-05-16T15:45:06.194Z,7.18
2023-05-16T15:51:09.529Z,9.10
2023-05-16T15:57:13.097Z,8.07
2023-05-16T16:03:16.503Z,5.97
2023-05-16T16:09:20.629Z,3.40
2023-05-16T16:15:24.577Z,2.50
2023-05-16T16:21:28.456Z,3.42
2023-05-16T16:27:31.713Z,3.60
2023-05-16T16:33:35.050Z,4.57
2023-05-16T16:39:38.977Z,8.10
2023-05-16T16:45:42.427Z,6.13
2023-05-16T16:51:47.392Z,4.38
2023-05-16T16:57:50.381Z,5.57
2023-05-16T17:03:53.347Z,5.50
2023-05-16T17:09:57.057Z,4.85
2023-05-16T17:16:02.083Z,3.42
2023-05-16T17:22:07.904Z,4.10
2023-05-16T17:28:10.393Z,4.35
2023-05-16T17:34:12.670Z,4.25
2023-05-16T17:40:17.409Z,4.80
2023-05-16T17:46:20.543Z,7.32
2023-05-16T17:52:23.213Z,5.68
2023-05-16T17:58:25.585Z,5.90
2023-05-16T18:04:27.865Z,4.88
2023-05-16T18:10:36.861Z,3.08
2023-05-16T18:16:52.711Z,7.47
2023-05-16T18:22:55.136Z,4.63
2023-05-16T18:28:58.114Z,6.63
2023-05-16T18:35:04.094Z,3.17
2023-05-16T18:41:07.391Z,7.80
2023-05-16T18:47:10.437Z,5.07
2023-05-16T18:53:12.769Z,4.25
2023-05-16T18:59:15.137Z,3.88
2023-05-16T19:05:19.540Z,4.28
2023-05-16T19:11:22.679Z,4.35
2023-05-16T19:17:25.304Z,6.70
2023-05-16T19:23:27.703Z,5.93
2023-05-16T19:29:30.074Z,5.63
2023-05-16T19:35:32.797Z,6.57
2023-05-16T19:41:36.676Z,10.90
2023-05-16T19:47:39.089Z,5.95
2023-05-16T19:53:42.123Z,9.27
2023-05-16T19:59:44.554Z,11.18
2023-05-16T20:05:46.862Z,7.75
2023-05-16T20:11:49.730Z,11.32
2023-05-16T20:17:52.464Z,9.30
2023-05-16T20:23:54.811Z,8.63
2023-05-16T20:29:57.251Z,14.60
2023-05-16T20:35:59.604Z,7.03
2023-05-16T20:42:11.383Z,10.70
2023-05-16T20:48:14.256Z,13.95
2023-05-16T20:54:16.872Z,10.93
2023-05-16T21:00:19.428Z,10.77
2023-05-16T21:06:21.755Z,8.65
2023-05-16T21:12:24.127Z,8.85
2023-05-16T21:18:26.694Z,8.63
2023-05-16T21:24:30.013Z,12.48
2023-05-16T21:30:32.420Z,14.02
2023-05-16T21:36:34.770Z,10.52
2023-05-16T21:42:37.099Z,9.60
2023-05-16T21:48:39.764Z,13.98
2023-05-16T21:54:43.033Z,8.18
2023-05-16T22:00:45.947Z,10.30
2023-05-16T22:06:48.214Z,12.63
2023-05-16T22:12:50.481Z,7.43
2023-05-16T22:18:53.258Z,8.60
2023-05-16T22:24:55.710Z,9.93
2023-05-16T22:30:57.993Z,12.30
2023-05-16T22:37:00.391Z,11.57
2023-05-16T22:43:02.726Z,11.13
2023-05-16T22:49:05.067Z,11.25
2023-05-16T22:55:10.968Z,9.48
2023-05-16T23:01:13.298Z,10.85
2023-05-16T23:07:15.620Z,8.20
2023-05-16T23:13:17.903Z,6.22
2023-05-16T23:19:22.802Z,11.15
2023-05-16T23:25:25.233Z,10.30
2023-05-16T23:31:27.700Z,10.35
2023-05-16T23:37:31.042Z,8.52
2023-05-16T23:43:33.422Z,12.88
2023-05-16T23:49:35.748Z,9.45
2023-05-16T23:55:38.069Z,9.07
